イヌヴィック の空港の天気 - METARとTAF

イヌヴィック空港 ( CYEV / YEV ) - カナダ ノースウエスト準州イヌヴィック
飛行場実況気象(Metar)
観測時間10/16 00:00 MDT (10/16 06:00 UTC)
風向・風速東 3m/s
視程10km以上
天気現象弱い雪
全天の8割程度の雲 雲底高度 580m
全天を覆う雲 雲底高度 1890m
気温-4℃
湿度86%
気圧1019.7hPa
METARCYEV 160600Z 09006KT 15SM -SN BKN019 OVC062 M04/M06 A3009 RMK SC5SC3 SLP197
過去の天気等 Google飛行場航空写真 Wunderground天気予報

過去48時間のMETAR

飛行場予報(TAF)
発表時間: 10/16 00:40 MDT (10/16 06:40 UTC)
予報対象時間: 16日1時 MDT ~ 16日13時 MDT
風向・風速東 3m/s
視程10km以上
全天の4割程度の雲 雲底高度 370m
全天を覆う雲 雲底高度 2130m
16日1時 MDT ~ 16日9時 MDT に一時的に
視程8050m
天気現象弱い雪
全天を覆う雲 雲底高度 300m
16日4時 MDT から 確率 30% で
視程3220m
天気現象弱い氷霧雨 もや
全天を覆う雲 雲底高度 150m
16日9時 MDT から
風向・風速東 5m/s
視程6440m
天気現象弱い雪
全天の8割程度の雲 雲底高度 370m
全天を覆う雲 雲底高度 910m
16日9時 MDT ~ 16日13時 MDT に一時的に
視程1610m
天気現象弱い雪
全天を覆う雲 雲底高度 180m
TAF CYEV 160640Z 1607/1619 09006KT P6SM SCT012 OVC070
TEMPO 1607/1615 5SM -SN OVC010
PROB30 1610/1613 2SM -FZDZ BR OVC005
FM161500 09010KT 4SM -SN BKN012 OVC030
TEMPO 1615/1619 1SM -SN OVC006 RMK NXT FCST BY 161300Z